Time;durP1;ratioP1;P1;durP2;ratioP2;P2;SDS_P1;SDS_P2;PMS_P1;PMS_P2;Temp;Humidity;BMP_temperature;BMP_pressure;BME280_temperature;BME280_humidity;BME280_pressure;Samples;Min_cycle;Max_cycle;Signal;HPM_P1;HPM_P2
2021/05/16 00:01:29;;;;;;;13.05;9.63;;;;;;;16.88;59.63;99175.59;3629016;39;20187;-58
2021/05/16 00:03:57;;;;;;;11.60;10.10;;;;;;;16.86;59.82;99162.47;3628940;39;20074;-59
2021/05/16 00:06:26;;;;;;;12.32;9.95;;;;;;;16.79;59.81;99161.28;3628564;39;20030;-59
2021/05/16 00:08:52;;;;;;;12.40;10.65;;;;;;;16.80;60.40;99159.47;3618949;39;20035;-60
2021/05/16 00:11:20;;;;;;;11.73;9.23;;;;;;;16.76;60.35;99154.44;3628979;39;20034;-60
2021/05/16 00:13:47;;;;;;;12.10;10.05;;;;;;;16.70;60.50;99141.72;3630130;39;20034;-62
2021/05/16 00:16:13;;;;;;;11.35;9.90;;;;;;;16.67;60.92;99131.38;3639116;39;20039;-62
2021/05/16 00:18:40;;;;;;;13.43;9.63;;;;;;;16.67;60.83;99128.75;3636386;39;20318;-64
2021/05/16 00:21:08;;;;;;;11.55;10.35;;;;;;;16.70;60.85;99122.34;3624646;39;20095;-63
2021/05/16 00:23:35;;;;;;;11.45;9.73;;;;;;;16.71;60.73;99122.22;3635256;39;20031;-64
2021/05/16 00:26:01;;;;;;;10.90;9.77;;;;;;;16.61;61.01;99126.53;3622151;39;20034;-64
2021/05/16 00:28:28;;;;;;;10.40;9.40;;;;;;;16.49;61.30;99122.25;3628746;39;20035;-63
2021/05/16 00:31:02;;;;;;;11.50;10.32;;;;;;;16.49;61.47;99114.31;3629588;39;20031;-64
2021/05/16 00:33:29;;;;;;;12.20;10.57;;;;;;;16.50;61.42;99121.28;3628952;39;20043;-63
2021/05/16 00:35:56;;;;;;;13.30;10.68;;;;;;;16.53;61.49;99112.25;3628967;39;20379;-63
2021/05/16 00:38:24;;;;;;;11.68;9.95;;;;;;;16.50;61.51;99116.00;3629360;39;20196;-63
2021/05/16 00:40:51;;;;;;;14.75;11.02;;;;;;;16.38;61.60;99116.97;3629387;39;20406;-60
2021/05/16 00:43:17;;;;;;;14.20;11.75;;;;;;;16.27;62.05;99114.34;3629318;39;20027;-61
2021/05/16 00:45:47;;;;;;;14.43;12.25;;;;;;;16.23;62.45;99112.88;3627399;39;20033;-61
2021/05/16 00:48:16;;;;;;;14.10;11.93;;;;;;;16.20;62.53;99107.84;3629311;39;20034;-60
2021/05/16 00:50:47;;;;;;;16.73;11.75;;;;;;;16.13;62.77;99110.16;3630533;39;20088;-61
2021/05/16 00:53:14;;;;;;;;;;;;;;;16.15;61.51;99118.81;3630411;39;20023;-60
2021/05/16 00:55:42;;;;;;;13.55;11.63;;;;;;;16.19;62.06;99116.75;3635909;39;20275;-59
2021/05/16 00:58:09;;;;;;;13.52;11.65;;;;;;;16.12;62.31;99119.03;3631932;39;20083;-60
2021/05/16 01:00:40;;;;;;;14.10;11.75;;;;;;;16.12;62.83;99106.66;3629005;39;20050;-66
2021/05/16 01:03:07;;;;;;;;;;;;;;;16.22;61.62;99113.84;3629567;39;20042;-60
2021/05/16 01:05:34;;;;;;;12.73;10.70;;;;;;;16.23;61.68;99107.59;3631719;39;19946;-60
2021/05/16 01:08:01;;;;;;;14.27;12.02;;;;;;;16.11;62.36;99110.28;3629070;39;20108;-60
2021/05/16 01:10:28;;;;;;;15.30;12.13;;;;;;;16.12;62.62;99098.72;3628785;39;20031;-60
2021/05/16 01:12:58;;;;;;;15.65;13.15;;;;;;;16.20;63.00;99102.56;3628976;39;20039;-60
2021/05/16 01:15:28;;;;;;;15.25;12.27;;;;;;;16.26;62.88;99102.94;3628589;39;20345;-59
2021/05/16 01:17:55;;;;;;;15.02;12.60;;;;;;;16.26;62.65;99107.38;3629240;39;20034;-58
2021/05/16 01:20:24;;;;;;;15.18;12.20;;;;;;;16.20;62.74;99102.56;3628752;39;20299;-59
2021/05/16 01:22:54;;;;;;;15.52;12.65;;;;;;;16.21;62.44;99104.25;3628959;39;20035;-60
2021/05/16 01:25:22;;;;;;;16.85;13.45;;;;;;;16.16;62.94;99100.16;3628333;39;20042;-60
2021/05/16 01:27:49;;;;;;;13.07;11.77;;;;;;;16.12;62.83;99096.09;3628792;39;20031;-60
2021/05/16 01:30:17;;;;;;;13.88;12.13;;;;;;;16.08;62.87;99096.47;3628373;39;20311;-61
2021/05/16 01:32:43;;;;;;;15.27;12.18;;;;;;;16.02;62.97;99103.06;3628668;39;20417;-60
2021/05/16 01:35:11;;;;;;;17.77;12.93;;;;;;;15.96;62.95;99100.91;3628611;39;20398;-61
2021/05/16 01:37:38;;;;;;;16.48;12.32;;;;;;;15.98;62.96;99096.34;3628873;39;20299;-62
2021/05/16 01:40:08;;;;;;;13.07;11.68;;;;;;;15.93;63.09;99089.72;3628712;39;20138;-61
2021/05/16 01:42:35;;;;;;;11.85;10.65;;;;;;;15.87;63.07;99085.78;3628563;39;20042;-61
2021/05/16 01:45:04;;;;;;;14.90;12.63;;;;;;;15.84;63.40;99086.03;3628994;39;20027;-61
2021/05/16 01:47:32;;;;;;;14.23;12.70;;;;;;;15.89;63.53;99086.50;3629492;39;20035;-61
2021/05/16 01:50:05;;;;;;;13.05;10.52;;;;;;;15.95;63.47;99086.00;3620752;39;20271;-60
2021/05/16 01:52:33;;;;;;;14.43;11.70;;;;;;;16.04;63.01;99093.22;3630523;39;20038;-61
2021/05/16 01:55:00;;;;;;;12.77;11.35;;;;;;;16.08;63.24;99093.81;3620007;39;20027;-61
2021/05/16 01:57:28;;;;;;;14.32;11.90;;;;;;;16.13;63.14;99092.47;3630332;39;20147;-61
2021/05/16 01:59:56;;;;;;;13.77;11.43;;;;;;;16.13;62.80;99097.78;3630175;39;20313;-61
2021/05/16 02:02:23;;;;;;;13.52;11.15;;;;;;;16.11;63.00;99104.16;3630114;39;20383;-62
2021/05/16 02:04:50;;;;;;;12.98;11.15;;;;;;;16.10;63.02;99099.81;3630043;39;20039;-61
2021/05/16 02:07:18;;;;;;;15.55;11.55;;;;;;;16.14;63.04;99096.81;3634030;39;20039;-60
2021/05/16 02:09:45;;;;;;;13.63;10.35;;;;;;;16.16;62.80;99102.81;3629623;39;20043;-60
2021/05/16 02:12:16;;;;;;;13.20;10.90;;;;;;;16.20;62.36;99107.84;3629759;39;20416;-60
2021/05/16 02:14:44;;;;;;;13.20;11.50;;;;;;;16.23;62.45;99102.31;3630274;39;20160;-61
2021/05/16 02:17:13;;;;;;;12.38;10.70;;;;;;;16.27;62.16;99101.97;3630157;39;20031;-58
2021/05/16 02:19:40;;;;;;;11.85;10.15;;;;;;;16.27;62.16;99103.78;3630516;39;20039;-59
2021/05/16 02:22:07;;;;;;;11.77;10.57;;;;;;;16.30;62.13;99108.81;3629611;39;20037;-59
2021/05/16 02:24:34;;;;;;;11.40;9.95;;;;;;;16.33;61.94;99108.56;3629633;39;20349;-59
2021/05/16 02:27:01;;;;;;;14.77;10.27;;;;;;;16.32;61.71;99102.44;3629770;39;20306;-60
2021/05/16 02:29:29;;;;;;;13.95;10.80;;;;;;;16.33;62.13;99106.75;3630230;39;20046;-61
2021/05/16 02:31:57;;;;;;;16.13;11.15;;;;;;;16.33;61.65;99108.56;3629930;39;20057;-60
2021/05/16 02:34:24;;;;;;;11.48;9.68;;;;;;;16.30;61.75;99111.47;3630058;39;20367;-60
2021/05/16 02:36:51;;;;;;;12.40;10.77;;;;;;;16.24;61.91;99106.63;3631191;39;20120;-61
2021/05/16 02:39:18;;;;;;;14.43;11.27;;;;;;;16.22;61.96;99106.75;3631252;39;20038;-61
2021/05/16 02:41:45;;;;;;;15.40;11.45;;;;;;;16.22;62.14;99109.41;3631104;39;20050;-60
2021/05/16 02:44:13;;;;;;;16.60;12.20;;;;;;;16.24;62.23;99104.00;3629478;39;20391;-59
2021/05/16 02:46:40;;;;;;;13.73;11.27;;;;;;;16.25;62.07;99108.34;3630330;39;20039;-61
2021/05/16 02:49:08;;;;;;;15.77;11.10;;;;;;;16.22;62.62;99105.91;3630365;39;20039;-60
2021/05/16 02:51:34;;;;;;;13.85;11.43;;;;;;;16.22;62.33;99117.34;3629902;39;20037;-60
2021/05/16 02:54:01;;;;;;;12.52;10.65;;;;;;;16.25;62.34;99111.00;3629574;39;20288;-60
2021/05/16 02:56:28;;;;;;;12.60;10.80;;;;;;;16.28;62.17;99110.75;3629333;39;20030;-60
2021/05/16 02:58:55;;;;;;;12.68;11.10;;;;;;;16.28;62.18;99106.28;3629464;39;20051;-59
2021/05/16 03:01:22;;;;;;;13.13;10.38;;;;;;;16.27;62.07;99109.06;3629580;39;20031;-59
2021/05/16 03:03:49;;;;;;;17.85;11.55;;;;;;;16.16;62.30;99108.09;3629949;39;20026;-61
2021/05/16 03:06:17;;;;;;;13.90;11.20;;;;;;;16.11;62.93;99112.91;3630158;39;20043;-61
2021/05/16 03:08:43;;;;;;;11.57;10.05;;;;;;;16.12;62.65;99108.47;3630125;39;20070;-60
2021/05/16 03:11:10;;;;;;;10.55;9.20;;;;;;;16.16;62.41;99101.97;3620336;39;20037;-60
2021/05/16 03:13:37;;;;;;;11.32;9.85;;;;;;;16.20;62.09;99108.69;3629568;39;20090;-60
2021/05/16 03:16:04;;;;;;;12.80;10.65;;;;;;;16.24;62.00;99115.44;3629509;39;20042;-60
2021/05/16 03:18:31;;;;;;;13.80;10.80;;;;;;;16.29;61.93;99112.44;3629769;39;20367;-61
2021/05/16 03:20:58;;;;;;;12.27;10.98;;;;;;;16.29;62.02;99115.06;3630028;39;20092;-61
2021/05/16 03:23:25;;;;;;;12.10;10.80;;;;;;;16.27;62.28;99117.00;3630085;39;20131;-60
2021/05/16 03:25:57;;;;;;;12.23;10.18;;;;;;;16.23;62.20;99112.88;3630682;39;20026;-59
2021/05/16 03:28:24;;;;;;;12.30;10.40;;;;;;;16.16;62.13;99118.69;3629168;39;20038;-59
2021/05/16 03:30:51;;;;;;;13.30;10.00;;;;;;;16.01;62.31;99113.75;3629226;39;20545;-60
2021/05/16 03:33:18;;;;;;;13.82;10.63;;;;;;;16.01;62.77;99114.59;3629585;39;20421;-59
2021/05/16 03:35:45;;;;;;;12.82;10.18;;;;;;;16.09;62.16;99109.56;3629534;39;20305;-61
2021/05/16 03:38:11;;;;;;;12.82;11.07;;;;;;;16.20;61.94;99113.13;3620240;39;20032;-61
2021/05/16 03:40:39;;;;;;;13.82;10.07;;;;;;;16.26;61.83;99125.91;3634654;39;20321;-60
2021/05/16 03:43:06;;;;;;;18.02;10.00;;;;;;;16.30;61.50;99119.41;3630030;39;20042;-61
2021/05/16 03:45:33;;;;;;;12.25;10.10;;;;;;;16.26;61.76;99112.69;3626261;39;20057;-60
2021/05/16 03:48:00;;;;;;;12.13;10.23;;;;;;;16.25;61.70;99116.28;3629484;39;20070;-61
2021/05/16 03:50:27;;;;;;;11.20;9.95;;;;;;;16.16;61.85;99112.53;3629741;39;20037;-61
2021/05/16 03:52:54;;;;;;;14.73;10.10;;;;;;;16.16;61.58;99108.09;3629525;39;20447;-60
2021/05/16 03:55:21;;;;;;;11.20;9.25;;;;;;;16.20;61.49;99103.41;3629615;39;20042;-60
2021/05/16 03:57:50;;;;;;;11.25;9.13;;;;;;;16.20;61.47;99092.81;3634329;39;20110;-60
2021/05/16 04:00:18;;;;;;;10.85;9.68;;;;;;;16.17;61.28;99091.28;3630222;39;20414;-60
2021/05/16 04:02:46;;;;;;;12.43;10.02;;;;;;;16.16;61.66;99097.53;3629184;39;20138;-61
2021/05/16 04:05:14;;;;;;;10.48;8.52;;;;;;;16.17;61.23;99096.56;3629164;39;20043;-61
2021/05/16 04:07:43;;;;;;;10.68;9.02;;;;;;;16.22;61.32;99092.69;3629807;39;20062;-60
2021/05/16 04:10:11;;;;;;;14.38;9.65;;;;;;;16.27;61.19;99094.03;3628962;39;20063;-61
2021/05/16 04:12:38;;;;;;;9.85;8.65;;;;;;;16.30;60.96;99087.66;3629893;39;20075;-61
2021/05/16 04:15:07;;;;;;;9.90;8.90;;;;;;;16.31;60.82;99084.03;3629281;39;20019;-62
2021/05/16 04:17:35;;;;;;;10.60;9.50;;;;;;;16.38;60.72;99082.56;3629258;39;20035;-60
2021/05/16 04:20:01;;;;;;;11.13;9.70;;;;;;;16.49;60.79;99085.22;3629170;39;20038;-61
2021/05/16 04:22:28;;;;;;;9.82;8.82;;;;;;;16.57;60.42;99081.94;3629512;39;20043;-60
2021/05/16 04:24:55;;;;;;;10.43;8.90;;;;;;;16.80;59.77;99088.03;3629567;39;20083;-61
2021/05/16 04:27:22;;;;;;;13.50;11.07;;;;;;;17.07;59.49;99088.38;3629486;39;20118;-62
2021/05/16 04:29:49;;;;;;;14.55;10.15;;;;;;;17.43;58.98;99080.94;3629089;39;20451;-62
2021/05/16 04:32:16;;;;;;;22.98;12.95;;;;;;;17.81;57.71;99083.00;3619871;39;20111;-62
2021/05/16 04:34:43;;;;;;;13.10;9.20;;;;;;;18.11;56.90;99079.47;3629562;39;20035;-62
2021/05/16 04:37:10;;;;;;;10.38;8.88;;;;;;;18.44;55.95;99081.81;3629467;39;20031;-63
2021/05/16 04:39:37;;;;;;;8.70;7.68;;;;;;;18.95;55.00;99078.13;3629322;39;20059;-62
2021/05/16 04:42:05;;;;;;;8.02;7.20;;;;;;;20.20;51.84;99076.97;3634914;39;20042;-61
2021/05/16 04:44:32;;;;;;;9.48;7.60;;;;;;;20.97;50.24;99084.44;3632873;39;20026;-60
2021/05/16 04:46:59;;;;;;;9.38;7.10;;;;;;;20.84;50.03;99084.00;3628732;39;20031;-61
2021/05/16 04:49:27;;;;;;;9.65;7.70;;;;;;;20.83;49.96;99079.66;3628714;39;20470;-60
2021/05/16 04:51:54;;;;;;;7.82;6.75;;;;;;;20.89;49.43;99079.03;3631717;39;20108;-60
2021/05/16 04:54:21;;;;;;;8.45;7.63;;;;;;;20.96;50.00;99082.75;3629132;39;20071;-61
2021/05/16 04:56:48;;;;;;;7.95;6.97;;;;;;;21.11;49.35;99075.06;3628994;39;20416;-61
2021/05/16 04:59:14;;;;;;;9.18;6.82;;;;;;;21.26;48.63;99078.06;3619691;39;20035;-61
2021/05/16 05:01:41;;;;;;;9.23;7.22;;;;;;;21.32;48.60;99076.59;3629365;39;20033;-61
2021/05/16 05:04:09;;;;;;;8.43;7.15;;;;;;;21.28;47.90;99071.56;3619333;39;20034;-61
2021/05/16 05:06:37;;;;;;;8.30;7.13;;;;;;;21.31;47.70;99065.09;3628931;39;20043;-61
2021/05/16 05:09:05;;;;;;;8.82;7.43;;;;;;;21.24;48.79;99061.38;3628875;39;20035;-62
2021/05/16 05:11:32;;;;;;;11.30;7.57;;;;;;;21.12;48.71;99078.56;3628839;39;20051;-62
2021/05/16 05:13:59;;;;;;;9.52;8.18;;;;;;;20.96;48.39;99074.75;3628731;39;20405;-60
2021/05/16 05:16:26;;;;;;;9.10;7.25;;;;;;;20.72;48.75;99079.88;3619290;39;20302;-61
2021/05/16 05:18:52;;;;;;;8.15;6.95;;;;;;;20.57;48.81;99082.22;3629302;39;20034;-60
2021/05/16 05:21:19;;;;;;;8.68;6.55;;;;;;;20.47;49.49;99089.44;3628560;39;20401;-63
2021/05/16 05:23:47;;;;;;;8.15;6.82;;;;;;;20.39;48.84;99084.81;3637016;39;20042;-63
2021/05/16 05:26:14;;;;;;;6.55;5.85;;;;;;;20.22;49.00;99079.47;3632880;39;20026;-63
2021/05/16 05:28:41;;;;;;;9.82;7.00;;;;;;;20.14;49.37;99079.34;3630497;39;20046;-62
2021/05/16 05:31:07;;;;;;;7.28;6.30;;;;;;;20.22;49.85;99077.66;3630485;39;20066;-61
2021/05/16 05:33:34;;;;;;;10.25;6.97;;;;;;;20.49;49.14;99078.63;3630316;39;20111;-63
2021/05/16 05:36:01;;;;;;;7.40;6.43;;;;;;;20.85;48.74;99080.34;3630270;39;20049;-64
2021/05/16 05:38:28;;;;;;;8.43;6.30;;;;;;;21.21;47.42;99067.81;3630323;39;20027;-60
2021/05/16 05:40:56;;;;;;;6.60;5.97;;;;;;;21.64;46.94;99071.44;3630250;39;20127;-60
2021/05/16 05:43:23;;;;;;;7.07;5.97;;;;;;;21.96;45.59;99064.63;3620870;39;20114;-63
2021/05/16 05:45:49;;;;;;;8.02;6.30;;;;;;;22.10;46.09;99061.41;3630126;39;20031;-62
2021/05/16 05:48:16;;;;;;;7.88;6.13;;;;;;;22.26;45.79;99053.41;3630746;39;20161;-62
2021/05/16 05:50:43;;;;;;;9.45;7.00;;;;;;;22.45;45.40;99063.81;3622536;39;20063;-69
2021/05/16 05:53:10;;;;;;;8.40;6.15;;;;;;;22.71;45.29;99053.03;3631215;39;20366;-61
2021/05/16 05:55:37;;;;;;;6.50;5.90;;;;;;;22.87;44.61;99049.56;3631760;39;20071;-61
2021/05/16 05:58:04;;;;;;;9.10;6.20;;;;;;;23.04;43.97;99047.72;3631868;39;20061;-59
2021/05/16 06:00:31;;;;;;;8.68;6.53;;;;;;;22.96;44.11;99053.09;3635566;39;20058;-59
2021/05/16 06:02:59;;;;;;;7.30;6.15;;;;;;;23.09;43.57;99050.72;3633597;39;20047;-59
2021/05/16 06:05:27;;;;;;;8.32;6.30;;;;;;;24.70;40.46;99044.19;3631011;39;20430;-62
2021/05/16 06:07:55;;;;;;;6.68;5.97;;;;;;;27.74;35.76;99037.31;3639912;39;20413;-62
2021/05/16 06:10:23;;;;;;;7.78;6.05;;;;;;;29.84;32.06;99036.03;3640018;39;20037;-63
2021/05/16 06:12:50;;;;;;;6.15;5.45;;;;;;;31.02;30.29;99031.09;3632600;39;20034;-60
2021/05/16 06:15:18;;;;;;;7.65;6.70;;;;;;;31.80;28.79;99036.06;3626444;39;20055;-57
2021/05/16 06:17:45;;;;;;;6.28;5.32;;;;;;;34.01;25.92;99029.59;3629580;39;20123;-62
2021/05/16 06:20:12;;;;;;;7.22;5.03;;;;;;;36.14;23.06;99026.13;3634674;39;20046;-61
2021/05/16 06:22:39;;;;;;;5.40;4.20;;;;;;;37.94;20.82;99022.81;3629901;39;20038;-60
2021/05/16 06:25:07;;;;;;;4.68;4.22;;;;;;;38.98;19.48;99019.84;3630139;39;20042;-62
2021/05/16 06:27:34;;;;;;;5.07;4.53;;;;;;;40.21;18.37;99017.69;3629910;39;20031;-62
2021/05/16 06:30:01;;;;;;;5.05;4.55;;;;;;;40.94;17.11;99020.56;3630103;39;20046;-53
2021/05/16 06:32:28;;;;;;;5.18;4.07;;;;;;;41.88;15.97;99012.78;3629488;39;20039;-60
2021/05/16 06:34:55;;;;;;;4.95;3.72;;;;;;;43.07;14.98;99008.88;3629345;39;20034;-60
2021/05/16 06:37:22;;;;;;;3.97;3.58;;;;;;;43.99;13.66;99012.72;3629850;39;20035;-61
2021/05/16 06:39:49;;;;;;;4.80;4.30;;;;;;;44.74;12.83;99017.69;3629697;39;20042;-62
2021/05/16 06:42:16;;;;;;;4.75;3.72;;;;;;;45.27;12.28;99006.72;3630254;39;20027;-60
2021/05/16 06:44:42;;;;;;;4.75;3.50;;;;;;;45.65;11.95;99009.03;3620650;39;20272;-60
2021/05/16 06:47:09;;;;;;;4.25;3.50;;;;;;;44.51;12.89;99016.03;3629846;39;20066;-62
2021/05/16 06:49:37;;;;;;;5.18;3.63;;;;;;;44.51;12.83;99013.28;3629840;39;20306;-62
2021/05/16 06:52:05;;;;;;;3.70;3.30;;;;;;;44.77;12.42;99019.00;3630070;39;20045;-61
2021/05/16 06:54:32;;;;;;;4.32;3.75;;;;;;;43.29;12.92;99021.22;3630351;39;20115;-62
2021/05/16 06:56:59;;;;;;;4.47;3.15;;;;;;;39.53;16.61;99018.16;3630192;39;20057;-66
2021/05/16 06:59:26;;;;;;;4.78;3.63;;;;;;;38.21;17.56;99026.22;3630152;39;20033;-60
2021/05/16 07:01:52;;;;;;;6.95;4.25;;;;;;;38.66;16.72;99022.00;3630097;39;20115;-61
2021/05/16 07:04:19;;;;;;;5.28;4.20;;;;;;;38.53;16.60;99019.75;3630051;39;20039;-60
2021/05/16 07:06:47;;;;;;;4.82;3.95;;;;;;;38.66;16.67;99013.78;3620652;39;20119;-63
2021/05/16 07:09:14;;;;;;;5.00;4.22;;;;;;;39.58;16.27;99012.69;3627127;39;20030;-60
2021/05/16 07:11:41;;;;;;;4.45;3.75;;;;;;;39.60;15.83;99009.66;3636037;39;20057;-61
2021/05/16 07:14:07;;;;;;;4.90;4.40;;;;;;;39.71;15.89;99010.44;3640327;39;20063;-64
2021/05/16 07:16:34;;;;;;;5.57;4.30;;;;;;;37.58;17.93;99022.59;3640355;39;20030;-71
2021/05/16 07:19:02;;;;;;;7.90;5.50;;;;;;;35.75;19.86;99017.97;3639947;39;20030;-73
2021/05/16 07:21:29;;;;;;;6.00;4.65;;;;;;;34.79;20.82;99015.34;3640217;39;20114;-67
2021/05/16 07:23:56;;;;;;;5.00;4.50;;;;;;;35.03;20.35;99007.88;3639874;39;20062;-72
2021/05/16 07:26:23;;;;;;;4.00;3.67;;;;;;;34.92;20.46;99007.94;3640262;39;20035;-68
2021/05/16 07:28:51;;;;;;;6.10;5.07;;;;;;;34.31;21.85;99006.78;3640131;39;20038;-68
2021/05/16 07:31:18;;;;;;;5.78;4.63;;;;;;;33.46;22.24;99019.13;3630501;39;20031;-63
2021/05/16 07:33:45;;;;;;;5.88;4.75;;;;;;;32.77;22.96;99015.22;3639672;39;20375;-68
2021/05/16 07:36:12;;;;;;;5.40;4.78;;;;;;;32.19;24.34;99007.66;3639685;39;20038;-65
2021/05/16 07:38:39;;;;;;;6.50;5.22;;;;;;;31.92;24.06;99003.63;3630396;39;20035;-64
2021/05/16 07:41:06;;;;;;;5.47;4.97;;;;;;;31.78;24.48;99006.47;3638034;39;20446;-65
2021/05/16 07:43:33;;;;;;;5.85;4.68;;;;;;;31.53;24.86;99002.97;3630339;39;20386;-65
2021/05/16 07:46:00;;;;;;;5.72;4.85;;;;;;;31.29;25.07;98996.56;3637880;39;20483;-68
2021/05/16 07:48:28;;;;;;;8.40;4.80;;;;;;;31.17;25.82;99001.03;3633437;39;20076;-64
2021/05/16 07:50:56;;;;;;;6.25;5.05;;;;;;;31.14;25.86;98999.56;3631284;39;20031;-64
2021/05/16 07:53:23;;;;;;;5.53;5.03;;;;;;;31.60;25.30;98997.47;3634333;39;20123;-65
2021/05/16 07:55:50;;;;;;;5.53;4.72;;;;;;;32.07;24.25;98998.66;3620611;39;20416;-64
2021/05/16 07:58:18;;;;;;;5.45;4.53;;;;;;;32.30;23.68;98990.66;3629416;39;20027;-67
2021/05/16 08:00:45;;;;;;;7.07;4.68;;;;;;;32.55;23.92;98997.81;3629314;39;20035;-62
2021/05/16 08:03:12;;;;;;;5.68;4.20;;;;;;;32.93;23.25;98990.16;3629486;39;20364;-64
2021/05/16 08:05:39;;;;;;;6.00;4.78;;;;;;;33.56;22.63;98992.19;3629500;39;20302;-63
2021/05/16 08:08:06;;;;;;;5.85;4.65;;;;;;;34.10;21.43;98983.81;3619581;39;20027;-61
2021/05/16 08:10:33;;;;;;;8.13;6.07;;;;;;;34.32;21.58;98979.34;3629140;39;20038;-63
2021/05/16 08:13:00;;;;;;;5.72;4.82;;;;;;;34.28;21.86;98993.69;3629234;39;20414;-61
2021/05/16 08:15:28;;;;;;;5.55;4.38;;;;;;;32.66;23.81;98986.97;3629469;39;20038;-68
2021/05/16 08:17:55;;;;;;;5.85;4.88;;;;;;;32.35;24.13;98992.66;3629184;39;20035;-70
2021/05/16 08:20:23;;;;;;;6.78;4.40;;;;;;;32.48;23.56;98989.75;3629268;39;20034;-66
2021/05/16 08:22:50;;;;;;;5.07;4.05;;;;;;;32.68;23.32;98992.16;3628504;39;20071;-63
2021/05/16 08:25:18;;;;;;;5.60;4.03;;;;;;;32.68;23.52;98994.88;3629055;39;20031;-63
2021/05/16 08:27:45;;;;;;;5.57;3.78;;;;;;;32.84;22.50;98988.81;3628824;39;20046;-65
2021/05/16 08:30:13;;;;;;;4.18;3.50;;;;;;;32.72;22.88;98993.38;3639975;39;20038;-65
2021/05/16 08:32:41;;;;;;;9.20;6.72;;;;;;;32.85;23.41;98992.34;3639292;39;20038;-66
2021/05/16 08:35:09;;;;;;;6.22;4.35;;;;;;;32.63;23.59;98986.63;3639399;39;20033;-66
2021/05/16 08:37:36;;;;;;;6.30;4.70;;;;;;;32.20;24.03;98990.31;3630093;39;20446;-67
2021/05/16 08:40:03;;;;;;;5.95;5.35;;;;;;;32.05;24.68;98995.31;3639508;39;20433;-65
2021/05/16 08:42:31;;;;;;;7.82;5.60;;;;;;;32.44;23.70;98994.81;3639775;39;20037;-70
2021/05/16 08:44:58;;;;;;;6.28;4.20;;;;;;;32.79;23.53;98985.13;3639490;39;20033;-66
2021/05/16 08:47:25;;;;;;;4.90;4.40;;;;;;;33.10;23.32;98986.72;3629995;39;20027;-68
2021/05/16 08:49:53;;;;;;;5.50;4.13;;;;;;;33.00;22.88;98987.31;3639526;39;20038;-72
2021/05/16 08:52:20;;;;;;;4.88;4.05;;;;;;;32.88;23.03;98989.16;3631711;39;20370;-71
2021/05/16 08:54:52;;;;;;;5.03;4.10;;;;;;;32.38;23.48;98990.31;3635962;39;20070;-68
2021/05/16 08:57:20;;;;;;;5.90;4.88;;;;;;;32.01;24.53;98994.13;3624142;39;20034;-67
2021/05/16 09:00:08;;;;;;;4.75;3.90;;;;;;;31.62;24.20;98989.94;3630599;39;20035;-70
2021/05/16 09:02:35;;;;;;;5.45;3.80;;;;;;;31.26;24.53;98990.75;3624217;39;20094;-68
2021/05/16 09:05:25;;;;;;;7.72;4.28;;;;;;;31.12;24.79;98984.59;3620855;39;20039;-66
2021/05/16 09:07:59;;;;;;;6.85;4.50;;;;;;;30.99;25.78;98976.59;3630433;39;20042;-68
2021/05/16 09:10:26;;;;;;;5.28;4.18;;;;;;;30.92;25.08;98988.28;3630526;39;20031;-70
2021/05/16 09:13:06;;;;;;;8.48;3.83;;;;;;;30.78;25.16;98975.91;3630800;39;20033;-69
2021/05/16 09:15:33;;;;;;;4.47;3.40;;;;;;;30.71;25.05;98982.44;3621260;39;20042;-69
2021/05/16 09:17:59;;;;;;;5.55;4.05;;;;;;;30.78;25.39;98973.22;3630728;39;20397;-70
2021/05/16 09:20:27;;;;;;;4.88;3.83;;;;;;;30.64;25.31;98974.38;3620998;39;20039;-76
2021/05/16 09:22:54;;;;;;;3.95;3.22;;;;;;;29.96;26.29;98977.59;3630342;39;20463;-70
2021/05/16 09:25:25;;;;;;;4.70;3.17;;;;;;;29.14;27.04;98994.38;3630011;39;20034;-67
2021/05/16 09:27:53;;;;;;;4.40;3.40;;;;;;;28.70;27.50;98994.94;3630205;39;20398;-64
2021/05/16 09:30:30;;;;;;;4.57;3.38;;;;;;;28.35;28.19;98996.97;3630603;39;20034;-64
2021/05/16 09:32:59;;;;;;;4.15;3.13;;;;;;;27.87;29.36;98994.25;3630662;39;20027;-62
2021/05/16 09:35:29;;;;;;;4.18;3.03;;;;;;;27.00;30.46;99000.94;3630745;39;20035;-72
2021/05/16 09:37:58;;;;;;;4.65;3.63;;;;;;;26.17;31.64;99006.84;3630663;39;20038;-69
2021/05/16 09:40:26;;;;;;;5.68;2.83;;;;;;;25.77;32.15;98997.47;3630564;39;20059;-71
2021/05/16 09:43:16;;;;;;;4.97;2.85;;;;;;;25.68;33.03;98996.75;3630149;39;20400;-68
2021/05/16 09:45:48;;;;;;;4.80;3.22;;;;;;;26.12;32.42;98998.53;3630163;39;20386;-65
2021/05/16 09:48:30;;;;;;;4.97;2.75;;;;;;;26.59;31.62;98989.16;3630282;39;20057;-68
2021/05/16 09:51:15;;;;;;;4.30;2.83;;;;;;;27.17;31.06;98995.28;3630180;39;20027;-67
2021/05/16 09:54:00;;;;;;;5.95;3.33;;;;;;;27.45;31.06;98988.00;3630213;39;20379;-67
2021/05/16 09:56:30;;;;;;;10.65;5.63;;;;;;;27.77;31.26;98989.25;3620249;39;20026;-68
2021/05/16 09:58:59;;;;;;;4.88;3.63;;;;;;;28.00;31.65;98994.34;3630064;39;20122;-67
2021/05/16 10:01:27;;;;;;;3.95;3.55;;;;;;;28.14;31.44;98990.66;3630512;39;20035;-66
2021/05/16 10:03:55;;;;;;;3.95;3.17;;;;;;;28.29;30.82;98985.13;3630387;39;20030;-67
2021/05/16 10:06:23;;;;;;;5.95;3.00;;;;;;;28.45;30.26;98986.63;3630079;39;20027;-68
2021/05/16 10:08:51;;;;;;;4.70;3.53;;;;;;;28.48;30.30;98986.22;3629597;39;20023;-68
2021/05/16 10:11:20;;;;;;;4.20;2.83;;;;;;;27.88;31.02;98987.84;3630356;39;20111;-69
2021/05/16 10:13:52;;;;;;;3.13;2.80;;;;;;;27.92;30.79;98976.50;3629953;39;20334;-68
2021/05/16 10:16:21;;;;;;;3.90;2.90;;;;;;;27.93;30.58;98970.06;3629536;39;20426;-69
2021/05/16 10:18:50;;;;;;;3.05;2.75;;;;;;;27.94;30.70;98974.44;3630503;39;20042;-68
2021/05/16 10:21:17;;;;;;;4.25;3.38;;;;;;;28.21;30.63;98966.44;3632127;39;20045;-67
2021/05/16 10:23:45;;;;;;;5.20;3.45;;;;;;;28.03;31.06;98958.06;3634143;39;20035;-68
2021/05/16 10:26:25;;;;;;;4.90;2.90;;;;;;;27.87;31.13;98970.84;3624069;39;20152;-70
2021/05/16 10:28:57;;;;;;;2.83;2.40;;;;;;;27.91;30.71;98968.63;3622014;39;20056;-66
2021/05/16 10:31:47;;;;;;;3.30;2.38;;;;;;;27.72;30.67;98963.97;3629870;39;20049;-66
2021/05/16 10:34:41;;;;;;;3.13;2.60;;;;;;;27.82;30.35;98961.72;3630346;39;20071;-66
2021/05/16 10:37:13;;;;;;;3.45;2.50;;;;;;;27.98;30.52;98961.38;3630268;39;20031;-67
2021/05/16 10:39:59;;;;;;;4.13;2.78;;;;;;;27.82;30.67;98965.25;3629585;39;20035;-66
2021/05/16 10:42:37;;;;;;;2.15;1.83;;;;;;;27.89;30.27;98965.25;3629915;39;20035;-67
2021/05/16 10:45:09;;;;;;;2.00;1.80;;;;;;;28.06;29.15;98961.19;3630075;39;20030;-68
2021/05/16 10:48:05;;;;;;;2.08;1.60;;;;;;;27.87;28.72;98960.09;3629535;39;20027;-66
2021/05/16 10:51:00;;;;;;;3.30;1.80;;;;;;;28.30;29.00;98961.69;3636275;39;20046;-68
2021/05/16 10:53:32;;;;;;;2.70;2.00;;;;;;;28.12;28.73;98965.78;3629766;39;20047;-66
2021/05/16 10:56:18;;;;;;;4.95;1.95;;;;;;;27.67;29.74;98955.63;3629689;39;20019;-67
2021/05/16 10:58:50;;;;;;;3.17;2.00;;;;;;;27.74;29.22;98959.22;3629785;39;20061;-66
2021/05/16 11:01:33;;;;;;;2.22;2.00;;;;;;;27.36;30.25;98959.59;3630048;39;20030;-67
2021/05/16 11:04:01;;;;;;;2.42;2.22;;;;;;;27.61;30.23;98958.06;3630266;39;20106;-68
2021/05/16 11:06:58;;;;;;;3.53;2.78;;;;;;;27.55;30.78;98952.66;3630146;39;20034;-68
2021/05/16 11:09:35;;;;;;;3.97;3.58;;;;;;;27.13;31.54;98954.47;3620431;39;20391;-67
2021/05/16 11:12:04;;;;;;;2.50;2.30;;;;;;;26.95;31.79;98957.63;3630287;39;20042;-64
2021/05/16 11:14:39;;;;;;;3.55;2.47;;;;;;;26.93;32.10;98956.16;3630439;39;20042;-68
2021/05/16 11:17:11;;;;;;;4.63;2.40;;;;;;;27.06;32.18;98958.13;3629880;39;20115;-68
2021/05/16 11:19:38;;;;;;;9.50;6.40;;;;;;;27.17;31.63;98971.06;3629519;39;20033;-69
2021/05/16 11:22:15;;;;;;;4.43;2.30;;;;;;;26.85;32.14;98962.50;3630833;39;20454;-68
2021/05/16 11:24:48;;;;;;;3.38;2.40;;;;;;;26.60;32.57;98966.63;3633794;39;20034;-67
2021/05/16 11:27:24;;;;;;;2.55;2.25;;;;;;;27.20;32.30;98970.66;3629318;39;20322;-66
2021/05/16 11:29:53;;;;;;;2.78;2.35;;;;;;;27.56;31.83;98975.88;3639461;39;20474;-67
2021/05/16 11:32:28;;;;;;;3.60;2.20;;;;;;;27.49;31.13;98978.53;3630310;39;20038;-69
2021/05/16 11:35:13;;;;;;;2.88;2.17;;;;;;;27.56;30.25;98976.69;3640008;39;20065;-66
2021/05/16 11:37:41;;;;;;;2.30;1.83;;;;;;;27.34;30.84;98977.81;3639853;39;20045;-65